Latest Weather Observations for Darwin Harbour

IDD60901

Issued at 6:21 pm CST Saturday 16 December 2017 (issued every 10 minutes, with the page automatically refreshed every 10 minutes)

About weather observations | Map of Darwin area stations | Latest observations for Darwin area | Other Formats
Station Details ID: 014072 Name: DARWIN NTC AWS Lat: -12.47 Lon: 130.85 Height: 0.0 m
Data from the previous 72 hours. | See also: Recent months for locations in Northern Territory
Date/Time
CST
Temp
°C
App
Temp
°C
Dew
Point
°C
Rel
Hum
%
Delta-T
°C
Wind Press
QNH
hPa
Press
MSL
hPa
Rain since
9am
mm
Dir  Spd
km/h
Gust
km/h
Spd
kts
Gust
kts
16/06:00pm - - - - - WSW 11 17 6 9 1005.8 1005.7 -
16/05:30pm - - - - - SSW 32 37 17 20 1005.9 1005.8 -
16/05:00pm - - - - - S 28 37 15 20 1005.7 1005.6 -
16/04:30pm - - - - - ESE 30 46 16 25 1005.7 1005.6 -
16/04:18pm - - - - - ENE 30 48 16 26 1005.4 1005.3 -
16/04:10pm - - - - - N 13 44 7 24 1005.3 1005.2 -
16/04:00pm - - - - - NNW 13 20 7 11 1004.7 1004.6 -
16/03:30pm - - - - - NW 15 24 8 13 1005.1 1005.0 -
16/03:00pm - - - - - WNW 15 22 8 12 1005.3 1005.2 -
16/02:30pm - - - - - WNW 15 20 8 11 1005.7 1005.6 -
16/02:00pm - - - - - NW 13 22 7 12 1006.4 1006.3 -
16/01:30pm - - - - - WNW 15 24 8 13 1006.8 1006.7 -
16/01:00pm - - - - - WNW 13 19 7 10 1007.2 1007.1 -
16/12:30pm - - - - - SW 6 7 3 4 1007.5 1007.4 -
16/12:00pm - - - - - SSE 2 6 1 3 1007.9 1007.8 -
16/11:30am - - - - - WSW 4 6 2 3 1008.5 1008.4 -
16/11:00am - - - - - SSW 2 4 1 2 1009.1 1009.0 -
16/10:30am - - - - - ESE 2 4 1 2 1009.6 1009.5 -
16/10:00am - - - - - SE 4 6 2 3 1009.7 1009.6 -
16/09:30am - - - - - ESE 4 6 2 3 1010.1 1010.0 -
16/09:00am - - - - - S 4 6 2 3 1010.1 1010.0 -
16/08:30am - - - - - S 9 15 5 8 1010.2 1010.1 -
16/08:00am - - - - - SE 7 11 4 6 1009.9 1009.8 -
16/07:30am - - - - - SE 6 9 3 5 1009.6 1009.5 -
16/07:00am - - - - - SSE 6 9 3 5 1009.2 1009.1 -
16/06:30am - - - - - SSE 6 9 3 5 1008.8 1008.7 -
16/06:00am - - - - - SSE 11 17 6 9 1008.6 1008.5 -
16/05:30am - - - - - ESE 13 20 7 11 1008.0 1007.9 -
16/05:00am - - - - - SE 17 22 9 12 1007.6 1007.5 -
16/04:30am - - - - - ESE 20 24 11 13 1007.2 1007.1 -
16/04:00am - - - - - E 13 17 7 9 1006.6 1006.5 -
16/03:30am - - - - - SE 15 19 8 10 1006.6 1006.5 -
16/03:00am - - - - - SE 13 17 7 9 1006.6 1006.5 -
16/02:30am - - - - - SE 11 15 6 8 1006.7 1006.6 -
16/02:00am - - - - - CALM 0 2 0 1 1006.7 1006.6 -
16/01:30am - - - - - NW 6 9 3 5 1006.9 1006.8 -
16/01:00am - - - - - N 4 6 2 3 1007.1 1007.0 -
16/12:30am - - - - - NNE 4 9 2 5 1007.2 1007.1 -
16/12:00am - - - - - N 6 7 3 4 1007.1 1007.0 -
 
Date/Time
CST
Temp
°C
App
Temp
°C
Dew
Point
°C
Rel
Hum
%
Delta-T
°C
Wind Press
QNH
hPa
Press
MSL
hPa
Rain since
9am
mm
Dir  Spd
km/h
Gust
km/h
Spd
kts
Gust
kts
15/11:30pm - - - - - NNW 7 15 4 8 1006.9 1006.8 -
15/11:00pm - - - - - N 7 13 4 7 1006.8 1006.7 -
15/10:30pm - - - - - N 7 13 4 7 1006.8 1006.7 -
15/10:00pm - - - - - NNW 6 11 3 6 1006.7 1006.6 -
15/09:30pm - - - - - NW 7 17 4 9 1006.5 1006.4 -
15/09:00pm - - - - - NW 7 13 4 7 1006.1 1006.0 -
15/08:30pm - - - - - NW 9 13 5 7 1005.9 1005.8 -
15/08:00pm - - - - - NW 7 13 4 7 1005.7 1005.6 -
15/07:30pm - - - - - WNW 9 13 5 7 1005.3 1005.2 -
15/07:00pm - - - - - W 15 20 8 11 1005.1 1005.0 -
15/06:30pm - - - - - NNW 9 17 5 9 1004.8 1004.7 -
15/06:00pm - - - - - NNW 11 19 6 10 1004.8 1004.7 -
15/05:30pm - - - - - NNW 11 17 6 9 1004.7 1004.6 -
15/05:00pm - - - - - WNW 7 11 4 6 1004.4 1004.3 -
15/04:30pm - - - - - WNW 11 15 6 8 1004.5 1004.4 -
15/04:00pm - - - - - W 4 7 2 4 1004.5 1004.4 -
15/03:30pm - - - - - W 6 7 3 4 1004.5 1004.4 -
15/03:00pm - - - - - WSW 7 9 4 5 1004.8 1004.7 -
15/02:30pm - - - - - WSW 7 9 4 5 1005.2 1005.1 -
15/02:00pm - - - - - WSW 6 9 3 5 1005.6 1005.5 -
15/01:30pm - - - - - WSW 6 7 3 4 1006.0 1005.9 -
15/01:00pm - - - - - NE 2 7 1 4 1006.1 1006.0 -
15/12:30pm - - - - - W 6 7 3 4 1006.6 1006.5 -
15/12:00pm - - - - - W 7 11 4 6 1007.1 1007.0 -
15/11:30am - - - - - W 6 7 3 4 1007.8 1007.7 -
15/11:00am - - - - - WSW 7 9 4 5 1008.4 1008.3 -
15/10:30am - - - - - S 11 17 6 9 1008.3 1008.2 -
15/10:00am - - - - - NE 7 19 4 10 1009.2 1009.1 -
15/09:30am - - - - - N 6 19 3 10 1009.4 1009.3 -
15/09:00am - - - - - NW 13 26 7 14 1009.3 1009.2 -
15/08:30am - - - - - WSW 6 13 3 7 1008.9 1008.8 -
15/08:00am - - - - - S 17 20 9 11 1008.5 1008.4 -
15/07:30am - - - - - SW 11 17 6 9 1007.9 1007.8 -
15/07:00am - - - - - WSW 11 17 6 9 1007.7 1007.6 -
15/06:30am - - - - - NW 6 11 3 6 1006.9 1006.8 -
15/06:00am - - - - - W 11 15 6 8 1007.2 1007.1 -
15/05:30am - - - - - W 9 13 5 7 1006.9 1006.8 -
15/05:00am - - - - - WNW 11 17 6 9 1006.5 1006.4 -
15/04:30am - - - - - WNW 11 19 6 10 1006.2 1006.1 -
15/04:00am - - - - - NW 9 17 5 9 1005.9 1005.8 -
15/03:30am - - - - - NW 7 19 4 10 1005.5 1005.4 -
15/03:00am - - - - - NW 11 19 6 10 1005.4 1005.3 -
15/02:30am - - - - - NW 7 15 4 8 1005.8 1005.7 -
15/02:00am - - - - - NW 9 13 5 7 1006.3 1006.2 -
15/01:30am - - - - - WNW 9 15 5 8 1006.7 1006.6 -
15/01:00am - - - - - WNW 9 15 5 8 1007.0 1006.9 -
15/12:30am - - - - - W 11 17 6 9 1007.1 1007.0 -
15/12:00am - - - - - W 13 17 7 9 1007.3 1007.2 -
 
Date/Time
CST
Temp
°C
App
Temp
°C
Dew
Point
°C
Rel
Hum
%
Delta-T
°C
Wind Press
QNH
hPa
Press
MSL
hPa
Rain since
9am
mm
Dir  Spd
km/h
Gust
km/h
Spd
kts
Gust
kts
14/11:30pm - - - - - W 11 15 6 8 1007.2 1007.1 -
14/11:00pm - - - - - WNW 9 13 5 7 1006.8 1006.7 -
14/10:30pm - - - - - W 11 15 6 8 1006.9 1006.8 -
14/10:00pm - - - - - W 11 15 6 8 1006.6 1006.5 -
14/09:30pm - - - - - WNW 9 15 5 8 1006.4 1006.3 -
14/09:00pm - - - - - WNW 11 17 6 9 1006.2 1006.1 -
14/08:30pm - - - - - W 11 15 6 8 1006.0 1005.9 -
14/08:00pm - - - - - W 11 15 6 8 1005.7 1005.6 -
14/07:30pm - - - - - W 13 17 7 9 1005.5 1005.4 -
14/07:00pm - - - - - W 11 15 6 8 1005.3 1005.2 -
14/06:30pm - - - - - WSW 9 13 5 7 1005.0 1004.9 -
14/06:00pm - - - - - W 15 19 8 10 1004.4 1004.3 -
14/05:30pm - - - - - NW 17 26 9 14 1004.3 1004.2 -
14/05:00pm - - - - - WNW 17 28 9 15 1004.3 1004.2 -
14/04:30pm - - - - - WNW 17 26 9 14 1004.4 1004.3 -
14/04:00pm - - - - - NW 13 24 7 13 1004.6 1004.5 -
14/03:30pm - - - - - NW 20 28 11 15 1004.8 1004.7 -
14/03:00pm - - - - - NNW 13 22 7 12 1005.1 1005.0 -
14/02:30pm - - - - - NW 13 22 7 12 1005.4 1005.3 -
14/02:00pm - - - - - NW 15 24 8 13 1005.8 1005.7 -
14/01:30pm - - - - - NW 6 17 3 9 1006.2 1006.1 -
14/01:00pm - - - - - W 7 11 4 6 1006.7 1006.6 -
14/12:30pm - - - - - WSW 6 9 3 5 1006.9 1006.8 -
14/12:00pm - - - - - WSW 6 6 3 3 1007.4 1007.3 -
14/11:30am - - - - - W 4 7 2 4 1007.9 1007.8 -
14/11:00am - - - - - WNW 7 13 4 7 1008.3 1008.2 -
14/10:30am - - - - - WSW 2 6 1 3 1008.7 1008.6 -
14/10:00am - - - - - WSW 4 7 2 4 1008.7 1008.6 -
14/09:30am - - - - - W 6 9 3 5 1008.7 1008.6 -
14/09:00am - - - - - W 6 7 3 4 1009.0 1008.9 -
14/08:30am - - - - - W 7 11 4 6 1008.9 1008.8 -
14/08:00am - - - - - WNW 4 9 2 5 1008.6 1008.5 -
14/07:30am - - - - - WSW 7 11 4 6 1008.1 1008.0 -
14/07:00am - - - - - WSW 11 17 6 9 1007.6 1007.5 -
14/06:30am - - - - - WSW 9 13 5 7 1007.0 1006.9 -
14/06:00am - - - - - W 6 11 3 6 1006.8 1006.7 -
14/05:30am - - - - - NNE 6 9 3 5 1006.6 1006.5 -
14/05:00am - - - - - NNE 11 20 6 11 1006.0 1005.9 -
14/04:30am - - - - - NNE 11 24 6 13 1006.2 1006.1 -
14/04:00am - - - - - NE 11 20 6 11 1006.6 1006.5 -
14/03:30am - - - - - NE 11 22 6 12 1007.0 1006.9 -
14/03:00am - - - - - ENE 13 28 7 15 1007.6 1007.5 -
14/02:30am - - - - - ENE 17 35 9 19 1007.9 1007.8 -
14/02:00am - - - - - NE 15 30 8 16 1007.5 1007.4 -
14/01:30am - - - - - ENE 13 28 7 15 1007.8 1007.7 -
14/01:00am - - - - - E 17 20 9 11 1007.3 1007.2 -
14/12:30am - - - - - SE 17 24 9 13 1007.7 1007.6 -
14/12:00am - - - - - SSE 19 26 10 14 1008.7 1008.6 -
 
Date/Time
CST
Temp
°C
App
Temp
°C
Dew
Point
°C
Rel
Hum
%
Delta-T
°C
Wind Press
QNH
hPa
Press
MSL
hPa
Rain since
9am
mm
Dir  Spd
km/h
Gust
km/h
Spd
kts
Gust
kts
13/11:30pm - - - - - SE 4 7 2 4 1008.9 1008.8 -
13/11:00pm - - - - - W 4 7 2 4 1008.8 1008.7 -
13/10:30pm - - - - - N 7 11 4 6 1008.2 1008.1 -
13/10:00pm - - - - - W 9 15 5 8 1008.1 1008.0 -
13/09:30pm - - - - - WSW 9 15 5 8 1008.1 1008.0 -
13/09:00pm - - - - - WSW 9 13 5 7 1007.7 1007.6 -
13/08:30pm - - - - - WNW 7 11 4 6 1007.4 1007.3 -
13/08:00pm - - - - - WNW 9 15 5 8 1006.9 1006.8 -
13/07:30pm - - - - - W 9 15 5 8 1006.7 1006.6 -
13/07:00pm - - - - - W 11 15 6 8 1006.3 1006.2 -
13/06:30pm - - - - - WNW 13 17 7 9 1005.8 1005.7 -

Latest Capital City Observations: Canberra | Sydney | Melbourne | Brisbane | Adelaide | Perth | Hobart | Darwin

Other Formats:

Comma delimited format used in spreadsheet applications
http://www.bom.gov.au/fwo/IDD60901/IDD60901.95122.axf

JavaScript Object Notation format (JSON) in row-major order
http://www.bom.gov.au/fwo/IDD60901/IDD60901.95122.json